Time;durP1;ratioP1;P1;durP2;ratioP2;P2;SDS_P1;SDS_P2;PMS_P1;PMS_P2;Temp;Humidity;BMP_temperature;BMP_pressure;BME280_temperature;BME280_humidity;BME280_pressure;Samples;Min_cycle;Max_cycle;Signal;HPM_P1;HPM_P2
2023/03/21 00:02:18;;;;;;;5.28;2.72;;;;;;;9.56;87.08;98354.53;4973686;28;20038;-86
2023/03/21 00:04:45;;;;;;;4.95;3.20;;;;;;;9.61;86.72;98354.78;4989266;28;20089;-87
2023/03/21 00:07:11;;;;;;;5.57;3.25;;;;;;;9.59;87.03;98346.28;4980469;28;20039;-86
2023/03/21 00:09:38;;;;;;;4.05;3.15;;;;;;;9.55;86.12;98342.44;4992413;28;20042;-86
2023/03/21 00:12:06;;;;;;;4.18;3.15;;;;;;;9.53;86.41;98336.53;4992656;28;20054;-86
2023/03/21 00:14:32;;;;;;;5.60;3.38;;;;;;;9.60;86.36;98350.53;4994199;28;20035;-86
2023/03/21 00:16:59;;;;;;;5.13;3.00;;;;;;;9.64;87.32;98343.91;4994403;28;20038;-87
2023/03/21 00:19:27;;;;;;;6.60;3.17;;;;;;;9.68;86.77;98360.06;4993260;28;20045;-86
2023/03/21 00:21:54;;;;;;;4.07;3.20;;;;;;;9.63;86.55;98365.84;4993179;28;20430;-86
2023/03/21 00:24:22;;;;;;;5.72;3.20;;;;;;;9.51;86.84;98346.41;5013744;28;20077;-87
2023/03/21 00:26:49;;;;;;;5.43;3.38;;;;;;;9.53;87.92;98360.09;4987977;28;20045;-87
2023/03/21 00:29:17;;;;;;;5.35;2.92;;;;;;;9.43;88.02;98359.63;4999435;28;20022;-86
2023/03/21 00:31:44;;;;;;;6.10;3.35;;;;;;;9.43;87.34;98349.16;5013675;28;20057;-86
2023/03/21 00:34:10;;;;;;;3.63;3.08;;;;;;;9.53;88.17;98354.88;4997773;28;20027;-86
2023/03/21 00:36:36;;;;;;;6.47;3.40;;;;;;;9.43;86.80;98349.16;4996925;28;20072;-87
2023/03/21 00:39:05;;;;;;;5.07;3.60;;;;;;;9.27;86.68;98340.53;4997207;28;20026;-87
2023/03/21 00:41:31;;;;;;;6.57;3.50;;;;;;;9.32;87.01;98343.41;4997658;28;20030;-87
2023/03/21 00:43:57;;;;;;;5.38;3.30;;;;;;;9.42;87.03;98352.78;4997497;28;20030;-86
2023/03/21 00:46:24;;;;;;;5.10;3.13;;;;;;;9.35;88.21;98337.78;4979091;28;20042;-87
2023/03/21 00:48:50;;;;;;;4.45;3.35;;;;;;;9.42;88.20;98337.06;4994923;28;20046;-87
2023/03/21 00:51:25;;;;;;;4.93;3.17;;;;;;;9.40;86.52;98324.13;4993728;28;20045;-87
2023/03/21 00:53:58;;;;;;;5.05;3.20;;;;;;;9.55;88.36;98329.34;4996441;28;20030;-87
2023/03/21 00:56:24;;;;;;;6.22;3.65;;;;;;;9.57;88.62;98306.38;5029739;28;20085;-87
2023/03/21 00:58:51;;;;;;;9.23;3.67;;;;;;;9.56;86.75;98310.00;5000226;28;20034;-87
2023/03/21 01:01:18;;;;;;;6.85;3.13;;;;;;;9.75;88.19;98322.47;4990602;28;20051;-87
2023/03/21 01:03:46;;;;;;;5.38;3.22;;;;;;;9.70;86.69;98318.78;5026095;28;20034;-86
2023/03/21 01:06:13;;;;;;;4.80;3.38;;;;;;;9.63;86.30;98308.25;4996148;28;20034;-87
2023/03/21 01:08:42;;;;;;;4.82;3.35;;;;;;;9.61;86.99;98318.91;4994866;28;20043;-87
2023/03/21 01:11:14;;;;;;;5.00;3.35;;;;;;;9.49;82.99;98303.91;4995538;28;20386;-87
2023/03/21 01:13:41;;;;;;;4.00;3.40;;;;;;;9.49;84.65;98290.81;5010255;28;20069;-87
2023/03/21 01:16:09;;;;;;;5.47;3.28;;;;;;;9.63;83.31;98313.47;5007051;28;20034;-87
2023/03/21 01:18:38;;;;;;;4.70;3.40;;;;;;;9.61;81.48;98315.50;4995655;28;20034;-87
2023/03/21 01:21:10;;;;;;;5.53;3.45;;;;;;;9.62;83.57;98309.25;5010048;28;20050;-87
2023/03/21 01:23:38;;;;;;;3.83;2.97;;;;;;;9.63;83.94;98300.38;5010254;28;20030;-87
2023/03/21 01:26:04;;;;;;;4.55;3.20;;;;;;;9.53;84.21;98305.94;4995019;28;20045;-87
2023/03/21 01:28:32;;;;;;;6.45;3.50;;;;;;;9.57;86.01;98294.09;4995085;28;20544;-87
2023/03/21 01:31:01;;;;;;;4.90;3.60;;;;;;;9.63;84.69;98305.63;4994410;28;20397;-87
2023/03/21 01:33:29;;;;;;;4.55;3.65;;;;;;;9.52;86.57;98293.03;4993787;28;20046;-87
2023/03/21 01:35:56;;;;;;;4.88;3.50;;;;;;;9.60;87.46;98303.41;4995297;28;20387;-86
2023/03/21 01:38:23;;;;;;;4.72;3.22;;;;;;;9.50;85.00;98308.94;4995033;28;20037;-87
2023/03/21 01:40:51;;;;;;;6.93;3.30;;;;;;;9.48;85.71;98299.66;4993474;28;20070;-87
2023/03/21 01:43:31;;;;;;;4.93;3.33;;;;;;;9.44;85.99;98290.56;4993627;28;20046;-87
2023/03/21 01:46:09;;;;;;;5.65;3.78;;;;;;;9.38;86.56;98300.78;4993650;28;20073;-87
2023/03/21 01:48:42;;;;;;;6.50;3.70;;;;;;;9.41;88.79;98309.25;4994030;28;20584;-85
2023/03/21 01:51:12;;;;;;;4.65;3.45;;;;;;;9.24;89.04;98275.47;4991555;28;20038;-87
2023/03/21 01:53:47;;;;;;;6.53;4.05;;;;;;;9.27;89.10;98280.31;4994854;28;20034;-86
2023/03/21 01:56:27;;;;;;;6.93;4.30;;;;;;;9.17;87.13;98287.66;5025677;28;20058;-87
2023/03/21 01:59:02;;;;;;;6.50;4.13;;;;;;;9.18;87.47;98289.31;4994566;28;20513;-87
2023/03/21 02:01:33;;;;;;;4.88;3.90;;;;;;;9.21;89.06;98288.91;4994553;28;20047;-87
2023/03/21 02:04:02;;;;;;;6.63;4.32;;;;;;;9.22;87.06;98268.78;4994183;28;20062;-86
2023/03/21 02:06:39;;;;;;;5.07;3.95;;;;;;;9.30;88.39;98282.59;5006343;28;20051;-87
2023/03/21 02:09:12;;;;;;;6.10;3.72;;;;;;;9.17;89.46;98271.97;4982524;28;20038;-87
2023/03/21 02:11:39;;;;;;;5.97;3.90;;;;;;;9.27;88.94;98277.72;5009047;28;20050;-87
2023/03/21 02:14:05;;;;;;;4.38;3.90;;;;;;;9.07;88.66;98267.03;4992861;28;20034;-87
2023/03/21 02:16:37;;;;;;;4.82;3.78;;;;;;;9.19;89.53;98282.25;5014533;28;20076;-87
2023/03/21 02:19:40;;;;;;;7.07;4.15;;;;;;;9.13;89.65;98280.41;4984768;28;20073;-87
2023/03/21 02:22:31;;;;;;;5.95;4.03;;;;;;;9.15;91.37;98278.38;4992373;28;20100;-87
2023/03/21 02:25:10;;;;;;;;;;;;;;;9.14;91.59;98277.59;4994371;28;20050;-87
2023/03/21 02:27:56;;;;;;;7.03;4.53;;;;;;;8.98;91.18;98272.56;4992696;28;19910;-86
2023/03/21 02:30:59;;;;;;;7.60;5.22;;;;;;;8.96;91.27;98271.97;4991915;28;20097;-87
2023/03/21 02:34:00;;;;;;;7.80;4.07;;;;;;;8.89;91.48;98268.47;5008186;28;20068;-86
2023/03/21 02:37:06;;;;;;;9.55;4.10;;;;;;;8.92;88.91;98283.78;5010538;28;20031;-87
2023/03/21 02:40:00;;;;;;;4.57;3.38;;;;;;;9.00;89.57;98281.06;5001427;28;20054;-87
2023/03/21 02:42:43;;;;;;;9.20;4.05;;;;;;;9.00;88.56;98271.41;4974370;28;20066;-87
2023/03/21 02:45:24;;;;;;;6.90;4.05;;;;;;;9.03;89.59;98278.06;4973187;28;20043;-87
2023/03/21 02:48:03;;;;;;;7.15;4.10;;;;;;;9.04;89.94;98287.53;4992023;28;20050;-86
2023/03/21 02:50:47;;;;;;;7.10;3.90;;;;;;;9.08;89.78;98275.72;4988873;28;20042;-87
2023/03/21 02:53:38;;;;;;;7.28;3.60;;;;;;;9.10;88.59;98282.38;4993189;28;20034;-87
2023/03/21 02:56:09;;;;;;;4.43;3.33;;;;;;;8.98;88.74;98272.56;4993870;28;20034;-86
2023/03/21 02:58:40;;;;;;;7.70;3.63;;;;;;;8.95;89.22;98249.41;5018100;28;20047;-86
2023/03/21 03:01:08;;;;;;;9.13;3.95;;;;;;;9.04;89.89;98271.84;4989289;28;20047;-86
2023/03/21 03:03:37;;;;;;;7.75;3.70;;;;;;;9.08;90.79;98276.50;5024125;28;20042;-87
2023/03/21 03:06:17;;;;;;;10.32;3.92;;;;;;;9.12;89.50;98271.72;5007328;28;20757;-87
2023/03/21 03:09:08;;;;;;;6.35;3.63;;;;;;;9.17;88.27;98279.81;4990812;28;20030;-86
2023/03/21 03:11:42;;;;;;;4.90;3.45;;;;;;;9.06;89.78;98260.19;4997836;28;20109;-86
2023/03/21 03:14:36;;;;;;;7.65;4.00;;;;;;;9.20;89.33;98271.59;4991577;28;20112;-87
2023/03/21 03:17:48;;;;;;;5.47;3.30;;;;;;;9.20;89.29;98282.06;4992017;28;20045;-87
2023/03/21 03:20:52;;;;;;;7.00;3.60;;;;;;;9.24;89.06;98275.47;4992417;28;20640;-86
2023/03/21 03:23:50;;;;;;;5.85;3.63;;;;;;;9.25;90.02;98284.94;4992129;28;20442;-87
2023/03/21 03:26:30;;;;;;;7.22;3.45;;;;;;;9.26;90.46;98286.56;4992810;28;20031;-87
2023/03/21 03:29:03;;;;;;;7.30;3.90;;;;;;;9.24;87.74;98274.66;4992291;28;20030;-87
2023/03/21 03:31:42;;;;;;;6.10;3.30;;;;;;;9.18;87.20;98281.47;4992299;28;20038;-86
2023/03/21 03:34:15;;;;;;;4.90;3.58;;;;;;;9.25;86.96;98274.47;4975448;28;20084;-87
2023/03/21 03:36:50;;;;;;;5.82;3.22;;;;;;;9.07;86.22;98261.81;4990998;28;20437;-87
2023/03/21 03:39:17;;;;;;;6.78;3.80;;;;;;;9.22;85.97;98266.97;4976437;28;20035;-87
2023/03/21 03:41:56;;;;;;;5.18;3.53;;;;;;;9.23;87.36;98279.06;4992888;28;20092;-87
2023/03/21 03:44:24;;;;;;;5.93;3.28;;;;;;;9.22;89.70;98276.66;4992399;28;20030;-86
2023/03/21 03:47:26;;;;;;;6.63;3.92;;;;;;;9.31;88.59;98263.25;5023838;28;20493;-86
2023/03/21 03:50:28;;;;;;;7.30;4.00;;;;;;;9.15;88.51;98247.78;5003684;28;20464;-87
2023/03/21 03:53:20;;;;;;;5.30;3.85;;;;;;;9.18;90.28;98241.41;4983720;28;20026;-87
2023/03/21 03:55:50;;;;;;;5.30;3.53;;;;;;;9.25;89.89;98269.25;4993550;28;20106;-86
2023/03/21 03:58:19;;;;;;;3.95;3.53;;;;;;;9.26;89.85;98255.16;4996932;28;20038;-87
2023/03/21 04:00:46;;;;;;;5.30;3.53;;;;;;;9.26;89.93;98260.38;4995340;28;20506;-87
2023/03/21 04:03:13;;;;;;;5.68;4.03;;;;;;;9.26;89.88;98255.16;4994987;28;20105;-86
2023/03/21 04:05:40;;;;;;;7.63;3.75;;;;;;;9.28;90.33;98255.78;4995719;28;20074;-87
2023/03/21 04:08:08;;;;;;;6.85;4.38;;;;;;;9.10;90.29;98239.69;4995066;28;20046;-87
2023/03/21 04:10:34;;;;;;;4.95;3.78;;;;;;;9.12;90.09;98235.09;4995467;28;20092;-87
2023/03/21 04:13:00;;;;;;;5.32;3.67;;;;;;;9.15;90.25;98237.31;4994819;28;20101;-87
2023/03/21 04:15:27;;;;;;;6.00;4.03;;;;;;;9.14;90.48;98235.72;5027509;28;20030;-87
2023/03/21 04:17:53;;;;;;;4.50;3.72;;;;;;;9.15;91.07;98239.94;5011428;28;20054;-87
2023/03/21 04:20:19;;;;;;;5.50;4.00;;;;;;;9.14;91.34;98242.75;5027594;28;20560;-87
2023/03/21 04:22:45;;;;;;;8.07;4.18;;;;;;;9.11;91.58;98249.97;5011563;28;20030;-87
2023/03/21 04:25:12;;;;;;;6.93;3.83;;;;;;;9.14;90.76;98246.19;4995306;28;20038;-87
2023/03/21 04:27:38;;;;;;;6.85;4.22;;;;;;;9.08;91.74;98239.06;4995800;28;20041;-87
2023/03/21 04:30:06;;;;;;;6.53;4.00;;;;;;;9.08;91.79;98247.72;5010617;28;20053;-87
2023/03/21 04:32:38;;;;;;;6.22;3.67;;;;;;;9.03;91.87;98242.25;4994778;28;20104;-87
2023/03/21 04:35:10;;;;;;;5.20;3.72;;;;;;;9.04;91.68;98251.72;5010754;28;20073;-87
2023/03/21 04:37:38;;;;;;;5.45;3.92;;;;;;;8.92;92.45;98247.16;4995298;28;20042;-87
2023/03/21 04:40:06;;;;;;;6.80;4.18;;;;;;;8.85;92.48;98241.84;4995501;28;20500;-87
2023/03/21 04:42:34;;;;;;;4.65;3.97;;;;;;;8.90;92.71;98249.16;4979347;28;20564;-87
2023/03/21 04:45:01;;;;;;;6.65;3.53;;;;;;;8.73;92.47;98238.91;4998002;28;20042;-87
2023/03/21 04:47:27;;;;;;;6.20;4.25;;;;;;;8.67;92.04;98238.84;4994927;28;20042;-87
2023/03/21 04:49:55;;;;;;;6.80;4.70;;;;;;;8.75;92.74;98252.59;4993675;28;20482;-87
2023/03/21 04:52:34;;;;;;;7.57;4.38;;;;;;;8.54;92.36;98240.31;4995888;28;20659;-86
2023/03/21 04:55:00;;;;;;;9.10;4.43;;;;;;;8.55;92.96;98241.09;4991105;28;20046;-87
2023/03/21 04:57:27;;;;;;;8.77;4.47;;;;;;;8.41;93.91;98236.72;5021946;28;20104;-87
2023/03/21 04:59:53;;;;;;;5.68;4.10;;;;;;;8.35;94.49;98219.13;5007649;28;20483;-87
2023/03/21 05:02:20;;;;;;;6.32;3.95;;;;;;;8.43;95.52;98243.38;4995722;28;20035;-87
2023/03/21 05:04:46;;;;;;;4.38;3.90;;;;;;;8.31;95.69;98236.97;4995225;28;20049;-87
2023/03/21 05:07:12;;;;;;;5.32;4.25;;;;;;;8.21;96.60;98229.38;4993682;28;20042;-88
2023/03/21 05:09:39;;;;;;;10.60;4.72;;;;;;;8.29;96.84;98239.75;4994575;28;20034;-87
2023/03/21 05:12:05;;;;;;;7.07;4.47;;;;;;;8.29;96.69;98245.00;4994061;28;20061;-87
2023/03/21 05:14:31;;;;;;;6.20;4.43;;;;;;;8.27;97.17;98249.56;4994783;28;20402;-86
2023/03/21 05:17:00;;;;;;;6.38;4.38;;;;;;;8.29;97.52;98249.41;4995295;28;20073;-87
2023/03/21 05:19:39;;;;;;;7.47;4.18;;;;;;;8.29;97.26;98247.59;4993209;28;20402;-87
2023/03/21 05:22:10;;;;;;;5.95;4.10;;;;;;;8.28;98.18;98245.19;4994709;28;20034;-87
2023/03/21 05:24:40;;;;;;;6.13;4.00;;;;;;;8.34;98.33;98254.91;4995109;28;20041;-87
2023/03/21 05:27:07;;;;;;;6.22;4.20;;;;;;;8.35;97.95;98260.94;4993614;28;20486;-87
2023/03/21 05:29:33;;;;;;;6.72;4.35;;;;;;;8.38;98.80;98242.28;4974537;28;20490;-87
2023/03/21 05:32:00;;;;;;;5.70;3.90;;;;;;;8.33;97.87;98233.16;4983805;28;20046;-87
2023/03/21 05:34:27;;;;;;;7.15;4.00;;;;;;;8.48;98.21;98258.53;4994612;28;20119;-88
2023/03/21 05:36:54;;;;;;;9.77;4.30;;;;;;;8.45;99.29;98248.41;4992667;28;20092;-87
2023/03/21 05:39:20;;;;;;;4.97;4.43;;;;;;;8.48;99.32;98242.84;4995212;28;20069;-87
2023/03/21 05:41:47;;;;;;;7.07;4.20;;;;;;;8.65;99.15;98251.28;4995007;28;20030;-87
2023/03/21 05:44:13;;;;;;;6.43;4.38;;;;;;;8.73;99.20;98251.97;4994473;28;20041;-87
2023/03/21 05:46:39;;;;;;;6.43;4.22;;;;;;;8.63;98.83;98254.06;4994722;28;20105;-87
2023/03/21 05:49:10;;;;;;;6.30;4.43;;;;;;;8.66;99.13;98253.72;5013398;28;20124;-87
2023/03/21 05:51:36;;;;;;;5.97;4.20;;;;;;;8.69;98.46;98252.53;4991250;28;20045;-87
2023/03/21 05:54:02;;;;;;;5.90;4.40;;;;;;;8.78;98.22;98273.16;4994047;28;20042;-87
2023/03/21 05:56:29;;;;;;;6.13;4.50;;;;;;;8.62;98.93;98252.44;4992857;28;20061;-87
2023/03/21 05:58:55;;;;;;;8.35;4.95;;;;;;;8.78;98.35;98286.25;4989993;28;20050;-87
2023/03/21 06:01:21;;;;;;;6.78;4.60;;;;;;;8.60;98.36;98262.28;4993681;28;20072;-86
2023/03/21 06:03:48;;;;;;;5.82;4.40;;;;;;;8.67;98.63;98268.41;5025397;28;20537;-87
2023/03/21 06:06:14;;;;;;;5.63;4.68;;;;;;;8.68;99.68;98272.63;5025364;28;20085;-87
2023/03/21 06:08:40;;;;;;;7.18;4.57;;;;;;;8.79;100.00;98269.56;4992752;28;20038;-87
2023/03/21 06:11:24;;;;;;;7.38;4.50;;;;;;;8.77;98.66;98276.78;5025497;28;20069;-86
2023/03/21 06:13:51;;;;;;;6.47;4.35;;;;;;;8.92;100.00;98279.34;4993892;28;20055;-87
2023/03/21 06:16:17;;;;;;;5.45;4.22;;;;;;;8.91;100.00;98272.50;4993662;28;20026;-87
2023/03/21 06:18:43;;;;;;;5.75;4.40;;;;;;;9.03;100.00;98267.59;4992331;28;20053;-87
2023/03/21 06:21:09;;;;;;;6.88;4.40;;;;;;;9.16;100.00;98270.34;5007785;28;20133;-87
2023/03/21 06:23:36;;;;;;;10.48;4.40;;;;;;;9.31;100.00;98278.97;4992926;28;20049;-86
2023/03/21 06:26:03;;;;;;;4.60;4.10;;;;;;;9.36;100.00;98266.13;4993144;28;20505;-86
2023/03/21 06:28:29;;;;;;;6.07;4.35;;;;;;;9.41;99.36;98269.97;4993830;28;20034;-88
2023/03/21 06:30:56;;;;;;;8.23;4.32;;;;;;;9.43;96.58;98262.75;5025190;28;20038;-88
2023/03/21 06:33:23;;;;;;;5.10;4.18;;;;;;;9.57;96.32;98264.47;4994163;28;20547;-87
2023/03/21 06:35:56;;;;;;;7.25;4.57;;;;;;;9.55;96.72;98248.97;4977623;28;20041;-87
2023/03/21 06:38:24;;;;;;;8.80;4.38;;;;;;;9.63;95.70;98248.00;4994115;28;20041;-86
2023/03/21 06:40:50;;;;;;;6.47;4.90;;;;;;;9.89;95.70;98279.63;4992861;28;20436;-87
2023/03/21 06:43:17;;;;;;;7.40;4.70;;;;;;;9.89;96.60;98270.97;4992284;28;20069;-87
2023/03/21 06:45:44;;;;;;;7.07;4.97;;;;;;;9.90;94.25;98268.19;4993331;28;20049;-86
2023/03/21 06:48:11;;;;;;;6.75;4.85;;;;;;;10.07;96.20;98273.09;4975389;28;20077;-86
2023/03/21 06:50:37;;;;;;;8.10;5.47;;;;;;;9.96;92.21;98265.81;4989752;28;20045;-87
2023/03/21 06:53:28;;;;;;;9.75;4.90;;;;;;;10.16;97.09;98282.47;4992314;28;20034;-85
2023/03/21 06:55:55;;;;;;;7.68;4.82;;;;;;;10.24;94.75;98278.91;4990640;28;20081;-87
2023/03/21 06:58:25;;;;;;;5.80;4.78;;;;;;;10.32;95.67;98276.94;5013396;28;20430;-86
2023/03/21 07:00:52;;;;;;;6.45;4.18;;;;;;;10.22;93.54;98265.97;4990315;28;20490;-86
2023/03/21 07:03:18;;;;;;;7.53;5.00;;;;;;;10.31;91.57;98259.56;5008705;28;20034;-87
2023/03/21 07:05:45;;;;;;;6.55;4.70;;;;;;;10.34;91.90;98261.00;4998235;28;20050;-86
2023/03/21 07:08:12;;;;;;;9.23;5.47;;;;;;;10.43;92.02;98276.41;5023463;28;20085;-87
2023/03/21 07:10:43;;;;;;;6.20;5.00;;;;;;;10.50;92.41;98273.81;4974766;28;20042;-87
2023/03/21 07:13:09;;;;;;;7.63;4.68;;;;;;;10.65;94.23;98289.41;4992477;28;20042;-87
2023/03/21 07:15:37;;;;;;;7.57;5.28;;;;;;;10.61;90.71;98270.59;4974367;28;20038;-85
2023/03/21 07:18:08;;;;;;;7.10;4.97;;;;;;;10.80;91.10;98274.34;4991458;28;20052;-86
2023/03/21 07:20:38;;;;;;;5.10;4.50;;;;;;;10.86;91.78;98268.31;4990965;28;21680;-85
2023/03/21 07:23:06;;;;;;;6.70;5.05;;;;;;;10.87;89.75;98264.69;4991256;28;20050;-86
2023/03/21 07:25:33;;;;;;;7.07;5.03;;;;;;;10.82;88.82;98251.34;4992026;28;20073;-86
2023/03/21 07:27:59;;;;;;;9.48;5.57;;;;;;;11.02;88.31;98274.19;4989600;28;20046;-86
2023/03/21 07:30:26;;;;;;;6.60;5.18;;;;;;;10.98;87.67;98258.84;4974799;28;20042;-86
2023/03/21 07:32:53;;;;;;;6.45;5.60;;;;;;;11.09;86.09;98280.25;4992359;28;20050;-88
2023/03/21 07:35:19;;;;;;;9.18;5.72;;;;;;;11.10;87.52;98282.72;4988991;28;20047;-86
2023/03/21 07:37:46;;;;;;;6.40;5.38;;;;;;;11.08;85.73;98268.97;4990534;28;20042;-87
2023/03/21 07:40:12;;;;;;;8.00;5.07;;;;;;;11.18;84.95;98286.97;4990721;28;20046;-86
2023/03/21 07:42:41;;;;;;;7.97;5.22;;;;;;;11.31;87.39;98296.69;5008125;28;20046;-88
2023/03/21 07:45:19;;;;;;;9.15;5.75;;;;;;;11.40;91.75;98272.66;5007537;28;20050;-87
2023/03/21 07:47:47;;;;;;;9.57;6.07;;;;;;;11.53;86.61;98280.56;4992779;28;20090;-87
2023/03/21 07:50:14;;;;;;;10.55;5.43;;;;;;;11.63;86.38;98285.41;4987072;28;20449;-86
2023/03/21 07:52:59;;;;;;;8.07;5.25;;;;;;;11.79;87.91;98281.56;4991958;28;20045;-86
2023/03/21 07:55:27;;;;;;;12.20;5.63;;;;;;;11.81;82.94;98284.81;4990070;28;20065;-86
2023/03/21 07:57:53;;;;;;;7.70;6.47;;;;;;;11.86;86.62;98279.78;4990077;28;20047;-87
2023/03/21 08:00:23;;;;;;;8.35;5.85;;;;;;;11.92;83.92;98278.16;4991257;28;20379;-86
2023/03/21 08:02:53;;;;;;;9.82;6.03;;;;;;;11.96;83.05;98285.44;4990343;28;20046;-87
2023/03/21 08:05:22;;;;;;;7.93;5.25;;;;;;;12.15;81.91;98289.06;4991412;28;20057;-87
2023/03/21 08:07:50;;;;;;;8.20;5.25;;;;;;;12.11;79.81;98281.78;5006687;28;20038;-86
2023/03/21 08:10:18;;;;;;;7.18;5.57;;;;;;;12.24;81.79;98266.00;5022978;28;20034;-88
2023/03/21 08:12:45;;;;;;;10.75;5.47;;;;;;;12.21;76.19;98276.91;5023892;28;20077;-86
2023/03/21 08:15:13;;;;;;;8.20;4.45;;;;;;;12.22;75.51;98294.28;4991805;28;20039;-87
2023/03/21 08:17:44;;;;;;;6.45;4.97;;;;;;;12.18;78.74;98275.50;5003124;28;20050;-87
2023/03/21 08:20:22;;;;;;;7.20;4.93;;;;;;;12.44;75.27;98276.44;4989760;28;20030;-86
2023/03/21 08:22:49;;;;;;;9.65;5.10;;;;;;;12.68;76.20;98288.91;4989190;28;20057;-86
2023/03/21 08:25:20;;;;;;;7.47;5.05;;;;;;;12.95;74.64;98270.38;4990255;28;20528;-86
2023/03/21 08:27:50;;;;;;;8.77;5.03;;;;;;;13.25;73.98;98292.50;4992651;28;20037;-85
2023/03/21 08:30:21;;;;;;;6.68;5.18;;;;;;;13.38;68.08;98281.13;4991611;28;20096;-87
2023/03/21 08:32:48;;;;;;;7.03;4.88;;;;;;;13.40;66.18;98286.97;4992424;28;20034;-86
2023/03/21 08:35:17;;;;;;;8.73;5.20;;;;;;;13.42;65.66;98271.75;4996126;28;20042;-85
2023/03/21 08:37:44;;;;;;;5.47;4.80;;;;;;;13.30;62.78;98276.06;4973741;28;20109;-89
2023/03/21 08:40:16;;;;;;;8.07;4.72;;;;;;;13.35;66.31;98265.72;4974670;28;20058;-88
2023/03/21 08:42:43;;;;;;;6.60;4.72;;;;;;;13.48;63.50;98270.88;4991924;28;20050;-88
2023/03/21 08:45:12;;;;;;;8.32;5.10;;;;;;;13.55;65.70;98265.56;4993687;28;20046;-88
2023/03/21 08:47:39;;;;;;;5.50;4.22;;;;;;;13.64;65.77;98256.38;4983955;28;20050;-88
2023/03/21 08:50:10;;;;;;;9.02;4.80;;;;;;;13.75;64.61;98270.72;4996860;28;20053;-87
2023/03/21 08:52:44;;;;;;;8.70;5.18;;;;;;;13.07;60.08;98276.59;4996740;28;20065;-87
2023/03/21 08:55:13;;;;;;;7.97;4.88;;;;;;;12.98;63.92;98252.34;5027394;28;20057;-86
2023/03/21 08:57:44;;;;;;;7.80;5.05;;;;;;;12.75;61.82;98266.00;4993946;28;20109;-87
2023/03/21 09:00:16;;;;;;;7.35;4.90;;;;;;;12.67;67.28;98252.28;5019621;28;20034;-88
2023/03/21 09:02:48;;;;;;;6.57;4.90;;;;;;;12.79;66.56;98250.63;5026060;28;20041;-87
2023/03/21 09:05:15;;;;;;;7.47;4.35;;;;;;;12.99;65.92;98253.16;4994891;28;20050;-88
2023/03/21 09:07:42;;;;;;;6.88;5.53;;;;;;;12.94;66.21;98258.22;4993837;28;20620;-88
2023/03/21 09:10:14;;;;;;;8.40;5.28;;;;;;;13.09;66.40;98254.31;5008933;28;20043;-88
2023/03/21 09:12:41;;;;;;;7.97;5.07;;;;;;;13.13;66.28;98244.97;4990858;28;20038;-88
2023/03/21 09:15:10;;;;;;;8.30;5.03;;;;;;;13.30;69.04;98242.63;4993656;28;20046;-86
2023/03/21 09:17:42;;;;;;;8.05;5.00;;;;;;;13.28;65.62;98235.97;4994570;28;20050;-85
2023/03/21 09:20:17;;;;;;;7.43;5.30;;;;;;;12.97;62.03;98250.72;4994069;28;20034;-87
2023/03/21 09:22:49;;;;;;;8.32;5.30;;;;;;;12.89;63.09;98250.94;5027245;28;20096;-88
2023/03/21 09:25:15;;;;;;;9.07;4.90;;;;;;;12.79;63.58;98222.47;5026422;28;20112;-88
2023/03/21 09:27:44;;;;;;;8.45;5.50;;;;;;;13.01;64.30;98225.56;4992952;28;20062;-88
2023/03/21 09:30:18;;;;;;;7.80;5.22;;;;;;;13.30;61.39;98224.19;4994599;28;20041;-88
2023/03/21 09:32:49;;;;;;;8.10;5.15;;;;;;;13.50;62.80;98236.44;4995749;28;20049;-88
2023/03/21 09:35:17;;;;;;;;;;;;;;;13.38;61.26;98236.31;4993884;28;20054;-88
2023/03/21 09:37:46;;;;;;;8.20;5.00;;;;;;;13.21;62.03;98229.97;5027267;28;19917;-88
2023/03/21 09:40:25;;;;;;;8.00;5.53;;;;;;;13.12;62.41;98232.81;4987932;28;20047;-88
2023/03/21 09:43:17;;;;;;;8.15;5.25;;;;;;;12.97;63.35;98240.19;5007696;28;20578;-89
2023/03/21 09:46:02;;;;;;;9.63;5.50;;;;;;;12.99;64.05;98238.16;5009827;28;20034;-88
2023/03/21 09:48:49;;;;;;;9.75;5.57;;;;;;;13.12;64.34;98227.53;4995439;28;20494;-88
2023/03/21 09:51:18;;;;;;;8.93;4.93;;;;;;;13.18;63.23;98251.41;5004796;28;20494;-87
2023/03/21 09:53:50;;;;;;;10.63;5.95;;;;;;;13.25;63.89;98234.56;4994330;28;20034;-88
2023/03/21 09:56:18;;;;;;;8.07;5.20;;;;;;;13.24;62.65;98211.88;4976593;28;20445;-87
2023/03/21 09:58:53;;;;;;;8.40;4.80;;;;;;;13.41;62.69;98220.09;5006135;28;20034;-87
2023/03/21 10:01:31;;;;;;;5.68;4.72;;;;;;;13.65;64.16;98224.53;4995388;28;20370;-88
2023/03/21 10:04:04;;;;;;;7.57;5.20;;;;;;;13.85;62.62;98216.47;4991392;28;20713;-89
2023/03/21 10:06:33;;;;;;;6.13;4.97;;;;;;;13.82;62.88;98210.81;4995039;28;20046;-89
2023/03/21 10:09:13;;;;;;;8.63;3.90;;;;;;;14.15;60.84;98216.59;5009222;28;20064;-90
2023/03/21 10:11:49;;;;;;;3.67;2.70;;;;;;;14.15;52.99;98211.31;4994224;28;20051;-89
2023/03/21 10:14:30;;;;;;;3.60;2.70;;;;;;;14.43;55.27;98223.16;5028589;28;20057;-88
2023/03/21 10:17:10;;;;;;;;;;;;;;;14.61;51.35;98214.44;5007828;28;20031;-88
2023/03/21 10:19:40;;;;;;;4.80;2.60;;;;;;;14.62;52.43;98201.00;4977458;28;19921;-88
2023/03/21 10:22:13;;;;;;;4.47;2.50;;;;;;;14.65;53.53;98190.03;4993949;28;20034;-88
2023/03/21 10:24:42;;;;;;;4.82;2.60;;;;;;;14.92;52.67;98194.94;5009003;28;20108;-89
2023/03/21 10:27:13;;;;;;;3.72;2.58;;;;;;;15.06;52.25;98206.94;4994507;28;20520;-89
2023/03/21 10:29:47;;;;;;;8.10;3.58;;;;;;;14.81;48.82;98172.75;4993608;28;20037;-89
2023/03/21 10:32:17;;;;;;;4.93;2.97;;;;;;;15.07;52.83;98179.50;4993397;28;20069;-90
2023/03/21 10:34:59;;;;;;;4.43;2.90;;;;;;;15.03;49.24;98203.94;4992760;28;20413;-89
2023/03/21 10:37:26;;;;;;;6.90;2.50;;;;;;;15.02;52.62;98183.84;4993816;28;20215;-89
2023/03/21 10:39:54;;;;;;;5.78;2.88;;;;;;;14.92;50.59;98177.25;4991641;28;20050;-89
2023/03/21 10:42:26;;;;;;;5.40;3.05;;;;;;;15.06;53.01;98175.25;5009079;28;20050;-88
2023/03/21 10:44:58;;;;;;;4.80;2.67;;;;;;;15.16;53.20;98178.13;4994561;28;20478;-89
2023/03/21 10:47:32;;;;;;;3.58;2.55;;;;;;;15.02;49.73;98189.94;4977558;28;20070;-89
2023/03/21 10:50:16;;;;;;;3.63;2.20;;;;;;;15.10;50.92;98175.56;5024040;28;20481;-90
2023/03/21 10:52:59;;;;;;;3.92;2.75;;;;;;;15.24;53.53;98177.00;4992537;28;20062;-91
2023/03/21 10:55:31;;;;;;;5.85;3.05;;;;;;;15.02;50.44;98166.16;4993159;28;20451;-90
2023/03/21 10:58:09;;;;;;;6.70;2.83;;;;;;;15.08;52.23;98154.69;5009441;28;20029;-90
2023/03/21 11:00:46;;;;;;;6.13;2.80;;;;;;;14.94;50.95;98155.94;5015088;28;20588;-90
2023/03/21 11:03:27;;;;;;;5.43;3.10;;;;;;;15.00;50.96;98157.66;4998210;28;20046;-90
2023/03/21 11:06:26;;;;;;;;;;;;;;;15.24;53.45;98164.59;4994312;28;20034;-89
2023/03/21 11:09:14;;;;;;;5.00;3.03;;;;;;;15.62;51.83;98167.84;4995944;28;19918;-89
2023/03/21 11:12:04;;;;;;;5.85;3.33;;;;;;;15.46;52.71;98148.16;4994398;28;20030;-90
2023/03/21 11:14:42;;;;;;;4.00;2.88;;;;;;;15.63;53.58;98167.63;4994686;28;20406;-90
2023/03/21 11:17:20;;;;;;;5.70;3.75;;;;;;;15.32;50.90;98163.44;4994160;28;20034;-89
2023/03/21 11:19:56;;;;;;;4.70;3.20;;;;;;;15.38;52.51;98167.81;5024679;28;20050;-89
2023/03/21 11:22:30;;;;;;;4.90;3.30;;;;;;;15.32;51.71;98158.16;4980626;28;20046;-91
2023/03/21 11:25:01;;;;;;;5.72;3.03;;;;;;;15.55;54.93;98143.38;4990002;28;20034;-90
2023/03/21 11:27:30;;;;;;;4.85;3.67;;;;;;;15.32;52.35;98131.75;4993983;28;20097;-91
2023/03/21 11:30:00;;;;;;;5.20;3.17;;;;;;;15.44;53.91;98121.97;4995505;28;20030;-89
2023/03/21 11:32:36;;;;;;;5.67;3.80;;;;;;;15.71;52.07;98143.50;4989493;28;20051;-89
2023/03/21 11:35:26;;;;;;;5.82;3.53;;;;;;;15.47;51.86;98140.03;4988463;28;20480;-90
2023/03/21 11:37:57;;;;;;;4.13;3.72;;;;;;;15.25;53.27;98115.19;4991498;28;20686;-90
2023/03/21 11:40:36;;;;;;;5.93;3.70;;;;;;;15.63;55.63;98141.19;4988716;28;20054;-90
2023/03/21 11:43:29;;;;;;;4.30;3.90;;;;;;;15.73;52.54;98122.91;4988092;28;20544;-89
2023/03/21 11:46:00;;;;;;;7.75;4.30;;;;;;;15.47;52.29;98118.06;5000831;28;20038;-88
2023/03/21 11:48:27;;;;;;;6.20;3.70;;;;;;;15.86;55.86;98131.63;5011996;28;20042;-88
2023/03/21 11:51:17;;;;;;;6.10;4.30;;;;;;;15.69;52.09;98137.63;5010666;28;20061;-88
2023/03/21 11:54:41;;;;;;;4.10;3.45;;;;;;;15.64;52.51;98120.84;4998266;28;20052;-87
2023/03/21 11:57:44;;;;;;;6.70;4.45;;;;;;;15.77;51.52;98121.44;4993539;28;20034;-87
2023/03/21 12:00:25;;;;;;;8.27;3.97;;;;;;;15.52;51.64;98107.59;4993793;28;20031;-87
2023/03/21 12:03:28;;;;;;;5.20;4.32;;;;;;;15.62;51.48;98114.97;4993991;28;20038;-87
2023/03/21 12:06:04;;;;;;;8.38;4.38;;;;;;;15.75;54.41;98114.75;4993417;28;20384;-86